No particular awareness of the weather is required.    There are no Weather-warnings


Meteo18 Weather Cam more information Meteo18 Weather Cam


Thunder radar more information blitzortung!


Rain radar more information rain snow radar


Visit our other weather sites:

Template documentation
and downloads

And another site



Weather Underground History page Text

Daily Summary for October 29, 2017 Units:  Metric    English   Both
« Previous Day
Next Day »
Daily Weekly Monthly Yearly Custom
  High: Low: Average:
Temperature: -17.8 °C -14.8 °C -12.3 °C
Dew Point: -17.8 °C -15.4 °C -12.9 °C
Humidity: Humidity % 89 % 93 %
Wind Speed: 0 km/h 0 km/h 8.9 km/h
Wind Gust: 0 km/h - -
Wind:- - SSW
Pressure: 0 hPa 34577.8 hPa -
Precipitation: 12.7 mm    
Historical Graphs
 
 
Tabular Data for October 29, 2017
Time Temperature Dew Point Pressure Wind Wind Speed Wind Gust Humidity Rainfall Rate (Hourly)
-17.8 °C -17.8 °C 0 hPa Calm     Humidity % 0 mm
00:02 -14.6 °C -15.2 °C 34784.4 hPa Calm   2.6 km/h 92 % 0 mm
00:12 -14.7 °C -15.4 °C 34784.4 hPa Calm   2.6 km/h 92 % 0 mm
00:17 -14.7 °C -15.3 °C 34774.2 hPa Calm   2.6 km/h 93 % 0 mm
00:22 -14.8 °C -15.3 °C 34774.2 hPa Calm   5.1 km/h 93 % 0 mm
00:27 -14.8 °C -15.3 °C 34774.2 hPa Calm   5.1 km/h 93 % 0 mm
00:32 -14.8 °C -15.4 °C 34774.2 hPa SSE 2.6 km/h 2.6 km/h 93 % 0 mm
00:42 -14.8 °C -15.3 °C 34760.7 hPa SW 7.7 km/h 7.7 km/h 94 % 0 mm
00:52 -13.9 °C -14.5 °C 34760.7 hPa SW 7.7 km/h 12.9 km/h 93 % 0 mm
01:02 -13.7 °C -14.6 °C 34760.7 hPa SSW 2.6 km/h 15.6 km/h 90 % 0 mm
01:12 -14 °C -14.8 °C 34760.7 hPa SSW 7.7 km/h 15.6 km/h 91 % 0 mm
01:17 -14.1 °C -14.7 °C 34760.7 hPa SW 10.3 km/h -2586.8 km/h 92 % 0 mm
01:22 -14.1 °C -14.7 °C 34760.7 hPa SW 5.1 km/h -2586.8 km/h 92 % 0 mm
01:27 -14 °C -14.7 °C 34760.7 hPa WSW 5.1 km/h -2586.8 km/h 92 % 0 mm
01:32 -13.9 °C -14.6 °C 34760.7 hPa SW 5.1 km/h -2586.8 km/h 92 % 0 mm
01:37 -13.8 °C -14.5 °C 34760.7 hPa SW 2.6 km/h -2586.8 km/h 92 % 0 mm
01:42 -13.8 °C -14.4 °C 34760.7 hPa WSW 7.7 km/h -2586.8 km/h 92 % 0 mm
01:47 -13.7 °C -14.5 °C 34750.5 hPa SW 7.7 km/h -2586.8 km/h 91 % 0 mm
01:52 -13.7 °C -14.5 °C 34750.5 hPa WSW 5.1 km/h -2586.8 km/h 91 % 0 mm
01:57 -13.7 °C -14.5 °C 34750.5 hPa Calm   -2586.8 km/h 90 % 0 mm
02:02 -13.7 °C -14.5 °C 34750.5 hPa WSW 5.1 km/h -2586.8 km/h 90 % 0 mm
02:07 -13.7 °C -14.5 °C 34750.5 hPa Calm   -2586.8 km/h 90 % 0 mm
02:12 -13.7 °C -14.4 °C 34750.5 hPa WSW 5.1 km/h -2586.8 km/h 91 % 0 mm
02:17 -13.6 °C -14.4 °C 34740.4 hPa Calm   -2586.8 km/h 90 % 0 mm
02:22 -13.6 °C -14.3 °C 34740.4 hPa WNW 2.6 km/h -2586.8 km/h 91 % 0 mm
02:27 -13.6 °C -14.3 °C 34740.4 hPa Calm   -2586.8 km/h 91 % 0 mm
02:32 -13.6 °C -14.4 °C 34740.4 hPa Calm   -2586.8 km/h 90 % 0 mm
02:37 -13.6 °C -14.3 °C 34740.4 hPa Calm   -2586.8 km/h 91 % 0 mm
02:42 -13.6 °C -14.3 °C 34740.4 hPa Calm   -2586.8 km/h 91 % 0 mm
02:52 -13.6 °C -14.3 °C 34740.4 hPa Calm   -2586.8 km/h 91 % 0 mm
02:57 -13.6 °C -14.3 °C 34740.4 hPa Calm   -2586.8 km/h 91 % 0 mm
02:02 -13.5 °C -14.3 °C 34740.4 hPa Calm   -2586.8 km/h 91 % 0 mm
02:12 -13.5 °C -14.3 °C 34740.4 hPa Calm     91 % 0 mm
02:17 -13.5 °C -14.2 °C 34740.4 hPa Calm   5.1 km/h 92 % 0 mm
02:22 -13.4 °C -14.1 °C 34726.8 hPa Calm   5.1 km/h 92 % 0 mm
02:27 -13.4 °C -14.1 °C 34726.8 hPa SSW 2.6 km/h 12.9 km/h 92 % 0 mm
02:32 -13.4 °C -14.2 °C 34726.8 hPa SW 2.6 km/h 12.9 km/h 91 % 0 mm
02:37 -13.4 °C -14.1 °C 34726.8 hPa SW 2.6 km/h 12.9 km/h 92 % 0 mm
02:42 -13.4 °C -14.1 °C 34726.8 hPa Calm   12.9 km/h 92 % 0 mm
02:47 -13.4 °C -14.1 °C 34726.8 hPa Calm   12.9 km/h 92 % 0 mm
02:52 -13.4 °C -14.1 °C 34716.7 hPa SSW 2.6 km/h 12.9 km/h 92 % 0 mm
02:57 -13.4 °C -14.1 °C 34716.7 hPa SSW 5.1 km/h 10.3 km/h 92 % 0 mm
03:02 -13.4 °C -14.1 °C 34703.1 hPa SW 5.1 km/h 10.3 km/h 92 % 0 mm
03:12 -13.4 °C -14.1 °C 34703.1 hPa WSW 10.3 km/h 12.9 km/h 93 % 0 mm
03:17 -13.4 °C -14.1 °C 34693 hPa WSW 12.9 km/h 18.2 km/h 93 % 0 mm
03:22 -13.3 °C -13.9 °C 34693 hPa WSW 10.3 km/h 18.2 km/h 93 % 0 mm
03:27 -13.3 °C -13.9 °C 34693 hPa SW 12.9 km/h 20.8 km/h 93 % 0 mm
03:32 -13.3 °C -13.9 °C 34693 hPa WSW 7.7 km/h 20.8 km/h 93 % 0 mm
03:37 -13.3 °C -13.9 °C 34682.8 hPa WSW 18.2 km/h 18.2 km/h 93 % 0 mm
03:42 -13.3 °C -13.9 °C 34682.8 hPa WSW 7.7 km/h 18.2 km/h 93 % 0 mm
03:52 -13.2 °C -13.8 °C 34682.8 hPa SW 5.1 km/h 23.3 km/h 93 % 0 mm
03:57 -13.2 °C -13.7 °C 34682.8 hPa SW 5.1 km/h 15.6 km/h 94 % 0 mm
04:02 -13.2 °C -13.7 °C 34682.8 hPa SW 10.3 km/h 15.6 km/h 94 % 0 mm
04:22 -13.1 °C -13.6 °C 34682.8 hPa SSW 2.6 km/h 12.9 km/h 94 % 0 mm
04:27 -13.4 °C -13.9 °C 34682.8 hPa SW 7.7 km/h 7.7 km/h 94 % 0 mm
08:37 -12.6 °C -12.9 °C 34659.1 hPa WSW 10.3 km/h -2586.8 km/h 96 % 0 mm
08:42 -12.5 °C -12.8 °C 34659.1 hPa WSW 10.3 km/h -2586.8 km/h 96 % 0 mm
08:47 -12.4 °C -12.8 °C 34669.3 hPa West 2.6 km/h 23.3 km/h 96 % 0 mm
08:52 -12.4 °C -12.8 °C 34669.3 hPa SSW 7.7 km/h 23.3 km/h 96 % 0 mm
09:02 -12.4 °C -12.8 °C 34669.3 hPa SW 7.7 km/h 20.8 km/h 96 % 0 mm
09:07 -12.4 °C -12.7 °C 34669.3 hPa SW 5.1 km/h 18.2 km/h 96 % 0 mm
09:12 -12.4 °C -12.7 °C 34669.3 hPa WSW 5.1 km/h 18.2 km/h 96 % 0 mm
09:17 -12.4 °C -12.7 °C 34669.3 hPa Calm   15.6 km/h 96 % 0 mm
09:22 -12.3 °C -12.7 °C 34669.3 hPa WSW 7.7 km/h 15.6 km/h 96 % 0 mm
09:32 -12.3 °C -12.7 °C 34659.1 hPa SW 5.1 km/h 12.9 km/h 96 % 0 mm
09:37 -12.2 °C -12.6 °C 34659.1 hPa WSW 10.3 km/h 18.2 km/h 96 % 0 mm
09:42 -12.2 °C -12.5 °C 34659.1 hPa SW 5.1 km/h 18.2 km/h 96 % 0 mm
09:47 -12.2 °C -12.5 °C 34659.1 hPa WSW 10.3 km/h 20.8 km/h 96 % 0 mm
09:52 -12.2 °C -12.5 °C 34659.1 hPa SW 12.9 km/h 20.8 km/h 96 % 0 mm
09:57 -12.2 °C -12.5 °C 34659.1 hPa WSW 10.3 km/h 20.8 km/h 96 % 0 mm
10:02 -12.1 °C -12.4 °C 34645.6 hPa SSW 7.7 km/h 20.8 km/h 96 % 0 mm
10:12 -12.1 °C -12.4 °C 34645.6 hPa WSW 15.6 km/h 20.8 km/h 96 % 0 mm
10:17 -12 °C -12.3 °C 34645.6 hPa WSW 7.7 km/h 23.3 km/h 96 % 0 mm
10:22 -12 °C -12.3 °C 34645.6 hPa West 12.9 km/h 23.3 km/h 96 % 0 mm
10:27 -11.9 °C -12.3 °C 34645.6 hPa WSW 7.7 km/h 23.3 km/h 96 % 0 mm
10:32 -11.9 °C -12.3 °C 34645.6 hPa West 20.8 km/h 23.3 km/h 96 % 0 mm
10:42 -11.9 °C -12.2 °C 34645.6 hPa WSW 5.1 km/h 25.9 km/h 96 % 0 mm
10:47 -11.8 °C -12.2 °C 34645.6 hPa SW 12.9 km/h 25.9 km/h 96 % 0 mm
10:52 -11.8 °C -12.1 °C 34645.6 hPa West 7.7 km/h 25.9 km/h 96 % 0 mm
10:57 -11.8 °C -12.1 °C 34635.4 hPa West 18.2 km/h 20.8 km/h 96 % 0 mm
11:02 -11.7 °C -12.1 °C 34635.4 hPa West 12.9 km/h 20.8 km/h 96 % 0 mm
11:12 -11.7 °C -12.1 °C 34635.4 hPa SW 5.1 km/h 31.1 km/h 96 % 0 mm
11:17 -11.7 °C -12 °C 34635.4 hPa WSW 15.6 km/h 31.1 km/h 96 % 0 mm
11:22 -11.7 °C -12.1 °C 34625.2 hPa WSW 10.3 km/h 31.1 km/h 96 % 0 mm
11:32 -11.7 °C -12 °C 34625.2 hPa West 12.9 km/h 28.5 km/h 96 % 0 mm
11:42 -11.6 °C -11.9 °C 34625.2 hPa SSW 10.3 km/h 31.1 km/h 96 % 7.62 mm
11:52 -11.6 °C -11.9 °C 34625.2 hPa West 10.3 km/h 28.5 km/h 96 % 7.62 mm
11:57 -11.5 °C -11.8 °C 34635.4 hPa WNW 7.7 km/h 28.5 km/h 96 % 7.62 mm
12:02 -11.5 °C -11.9 °C 34635.4 hPa West 15.6 km/h 28.5 km/h 95 % 7.62 mm
12:07 -11.4 °C -11.9 °C 34625.2 hPa SW 15.6 km/h 28.5 km/h 95 % 7.62 mm
12:12 -11.4 °C -11.9 °C 34625.2 hPa WSW 10.3 km/h 28.5 km/h 95 % 7.62 mm
12:17 -11.3 °C -11.8 °C 34635.4 hPa WNW 2.6 km/h 23.3 km/h 95 % 7.62 mm
12:22 -11.3 °C -11.8 °C 34635.4 hPa West 15.6 km/h 23.3 km/h 95 % 7.62 mm
12:32 -11.3 °C -11.8 °C 34625.2 hPa WSW 12.9 km/h 18.2 km/h 95 % 0 mm
12:37 -11.3 °C -11.7 °C 34625.2 hPa WSW 5.1 km/h 18.2 km/h 95 % 0 mm
12:42 -11.3 °C -11.7 °C 34625.2 hPa West 10.3 km/h 18.2 km/h 95 % 0 mm
12:52 -11.2 °C -11.7 °C 34611.7 hPa WNW 7.7 km/h 18.2 km/h 95 % 0 mm
13:02 -11.2 °C -11.6 °C 34611.7 hPa West 10.3 km/h 23.3 km/h 95 % 0 mm
13:12 -11.1 °C -11.6 °C 34611.7 hPa West 15.6 km/h 23.3 km/h 94 % 0 mm
13:22 -10.9 °C -11.4 °C 34601.5 hPa WNW 23.3 km/h 23.3 km/h 94 % 0 mm
13:32 -10.8 °C -11.6 °C 34601.5 hPa WNW 33.6 km/h 33.6 km/h 92 % 0 mm
13:42 -10.9 °C -11.6 °C 34601.5 hPa WNW 20.8 km/h 33.6 km/h 92 % 0 mm
13:47 -10.9 °C -11.6 °C 34601.5 hPa West 18.2 km/h 33.6 km/h 92 % 0 mm
13:57 -10.9 °C -11.5 °C 34601.5 hPa West 12.9 km/h 38.8 km/h 93 % 0 mm
14:07 -10.9 °C -11.4 °C 34601.5 hPa West 15.6 km/h 33.6 km/h 94 % 0 mm
14:12 -11 °C -11.5 °C 34601.5 hPa WNW 20.8 km/h 25.9 km/h 94 % 0 mm
14:17 -11 °C -11.5 °C 34601.5 hPa WNW 20.8 km/h 25.9 km/h 94 % 0 mm
14:22 -11 °C -11.5 °C 34591.4 hPa WNW 10.3 km/h 28.5 km/h 94 % 0 mm
14:27 -10.9 °C -11.6 °C 34591.4 hPa WNW 23.3 km/h 28.5 km/h 93 % 0 mm
14:32 -10.9 °C -11.4 °C 34591.4 hPa West 2.6 km/h 25.9 km/h 94 % 0 mm
14:37 -10.9 °C -11.6 °C 34591.4 hPa West 12.9 km/h 25.9 km/h 93 % 0 mm
14:42 -10.9 °C -11.4 °C 34591.4 hPa West 2.6 km/h 28.5 km/h 94 % 0 mm
14:57 -10.9 °C -11.4 °C 34591.4 hPa West 5.1 km/h 25.9 km/h 94 % 0 mm
15:02 -10.8 °C -11.4 °C 34591.4 hPa West 10.3 km/h 25.9 km/h 93 % 0 mm
15:07 -10.9 °C -11.5 °C 34591.4 hPa West 5.1 km/h 25.9 km/h 93 % 0 mm
15:12 -10.8 °C -11.4 °C 34591.4 hPa WSW 7.7 km/h 20.8 km/h 93 % 0 mm
15:17 -10.8 °C -11.4 °C 34591.4 hPa West 7.7 km/h 20.8 km/h 93 % 0 mm
15:22 -10.8 °C -11.3 °C 34591.4 hPa West 5.1 km/h 23.3 km/h 94 % 0 mm
15:32 -10.8 °C -11.3 °C 34591.4 hPa WNW 15.6 km/h 23.3 km/h 94 % 0 mm
15:42 -10.7 °C -11.3 °C 34591.4 hPa West 7.7 km/h 25.9 km/h 93 % 0 mm
15:52 -10.7 °C -11.3 °C 34591.4 hPa West 12.9 km/h 25.9 km/h 93 % 0 mm
16:02 -10.7 °C -11.4 °C 34591.4 hPa West 20.8 km/h 28.5 km/h 92 % 0 mm
16:12 -10.7 °C -11.4 °C 34591.4 hPa WNW 7.7 km/h 23.3 km/h 92 % 0 mm
16:17 -10.7 °C -11.4 °C 34591.4 hPa West 7.7 km/h 23.3 km/h 92 % 0 mm
16:27 -10.7 °C -11.4 °C 34591.4 hPa WNW 10.3 km/h 23.3 km/h 92 % 0 mm
16:32 -10.7 °C -11.4 °C 34591.4 hPa WNW 7.7 km/h 23.3 km/h 92 % 0 mm
16:37 -10.7 °C -11.3 °C 34591.4 hPa West 7.7 km/h 20.8 km/h 93 % 0 mm
16:42 -10.7 °C -11.3 °C 34591.4 hPa West 15.6 km/h 20.8 km/h 93 % 0 mm
16:47 -10.7 °C -11.3 °C 34591.4 hPa SW 7.7 km/h 20.8 km/h 93 % 0 mm
16:52 -10.7 °C -11.3 °C 34591.4 hPa West 23.3 km/h 23.3 km/h 93 % 0 mm
16:57 -10.7 °C -11.3 °C 34577.8 hPa West 20.8 km/h 28.5 km/h 93 % 0 mm
17:02 -10.7 °C -11.3 °C 34577.8 hPa West 7.7 km/h 28.5 km/h 93 % 0 mm
17:12 -10.8 °C -11.3 °C 34577.8 hPa West 12.9 km/h 28.5 km/h 94 % 0 mm
17:17 -10.8 °C -11.3 °C 34577.8 hPa West 12.9 km/h 23.3 km/h 94 % 0 mm
17:22 -10.8 °C -11.3 °C 34591.4 hPa WSW 10.3 km/h 23.3 km/h 94 % 0 mm
17:27 -10.8 °C -11.3 °C 34577.8 hPa NW 15.6 km/h 23.3 km/h 94 % 0 mm
17:32 -10.8 °C -11.3 °C 34577.8 hPa WNW 10.3 km/h 23.3 km/h 94 % 0 mm
17:37 -10.8 °C -11.3 °C 34591.4 hPa West 12.9 km/h 23.3 km/h 94 % 0 mm
17:42 -10.8 °C -11.3 °C 34591.4 hPa West 10.3 km/h 23.3 km/h 94 % 0 mm
17:47 -10.8 °C -11.3 °C 34591.4 hPa WNW 7.7 km/h 20.8 km/h 94 % 0 mm
17:52 -10.9 °C -11.6 °C 34601.5 hPa NNE 20.8 km/h 20.8 km/h 92 % 0 mm
18:02 -11.3 °C -11.9 °C 34601.5 hPa NNE 25.9 km/h 41.4 km/h 93 % 12.7 mm
18:12 -11.5 °C -12 °C 34611.7 hPa NNW 20.8 km/h 41.4 km/h 94 % 12.7 mm
18:17 -11.7 °C -12.2 °C 34611.7 hPa NNE 36.2 km/h 38.8 km/h 94 % 12.7 mm
18:27 -11.9 °C -12.4 °C 34625.2 hPa NW 20.8 km/h 44.1 km/h 94 % 12.7 mm
18:37 -12 °C -12.4 °C 34625.2 hPa ENE 18.2 km/h 44.1 km/h 95 % 12.7 mm
18:42 -12 °C -12.4 °C 34635.4 hPa North 15.6 km/h 38.8 km/h 95 % 12.7 mm
18:47 -12.1 °C -12.5 °C 34635.4 hPa NE 12.9 km/h 38.8 km/h 95 % 12.7 mm
19:02 -12.1 °C -12.6 °C 34645.6 hPa NNE 23.3 km/h 25.9 km/h 95 % 0 mm
19:12 -12.1 °C -12.6 °C 34635.4 hPa NE 7.7 km/h 25.9 km/h 95 % 0 mm
19:22 -12.1 °C -12.6 °C 34635.4 hPa NE 12.9 km/h 23.3 km/h 95 % 0 mm
19:27 -12.1 °C -12.6 °C 34635.4 hPa NE 10.3 km/h 15.6 km/h 95 % 0 mm
19:32 -12.1 °C -12.6 °C 34635.4 hPa NNE 5.1 km/h 15.6 km/h 95 % 0 mm
19:37 -12.1 °C -12.6 °C 34645.6 hPa Calm   15.6 km/h 95 % 0 mm
19:42 -12.2 °C -12.6 °C 34645.6 hPa NE 5.1 km/h 15.6 km/h 95 % 0 mm
19:47 -12.2 °C -12.6 °C 34645.6 hPa WNW 7.7 km/h 15.6 km/h 95 % 0 mm
19:52 -12.2 °C -12.6 °C 34645.6 hPa Calm   15.6 km/h 95 % 0 mm
19:57 -12.2 °C -12.6 °C 34645.6 hPa North 2.6 km/h 15.6 km/h 95 % 0 mm
20:02 -12.2 °C -12.6 °C 34645.6 hPa North 7.7 km/h 15.6 km/h 95 % 0 mm
20:12 -12.2 °C -12.6 °C 34645.6 hPa NNE 5.1 km/h 10.3 km/h 95 % 0 mm
20:17 -12.2 °C -12.6 °C 34645.6 hPa NNE 7.7 km/h 10.3 km/h 95 % 0 mm
20:22 -12.2 °C -12.6 °C 34645.6 hPa NNW 2.6 km/h 10.3 km/h 95 % 0 mm
20:27 -12.2 °C -12.6 °C 34645.6 hPa NE 5.1 km/h 15.6 km/h 95 % 0 mm
20:32 -12.2 °C -12.6 °C 34645.6 hPa North 7.7 km/h 15.6 km/h 95 % 0 mm
20:37 -12.2 °C -12.6 °C 34645.6 hPa Calm   12.9 km/h 95 % 0 mm
20:42 -12.2 °C -12.7 °C 34645.6 hPa North 10.3 km/h 12.9 km/h 95 % 0 mm
20:52 -12.2 °C -12.7 °C 34659.1 hPa NNE 5.1 km/h 15.6 km/h 95 % 0 mm
20:57 -12.2 °C -12.7 °C 34659.1 hPa NNE 7.7 km/h 18.2 km/h 95 % 0 mm
21:02 -12.2 °C -12.7 °C 34659.1 hPa NE 10.3 km/h 18.2 km/h 95 % 0 mm
21:12 -12.2 °C -12.7 °C 34659.1 hPa North 7.7 km/h 18.2 km/h 95 % 0 mm
21:17 -12.2 °C -12.7 °C 34659.1 hPa North 10.3 km/h 18.2 km/h 95 % 0 mm
21:22 -12.2 °C -12.7 °C 34659.1 hPa NNE 5.1 km/h 18.2 km/h 95 % 0 mm
21:32 -12.2 °C -12.7 °C 34669.3 hPa NNE 10.3 km/h 23.3 km/h 94 % 0 mm
21:37 -12.2 °C -12.7 °C 34669.3 hPa NNE 12.9 km/h 25.9 km/h 94 % 0 mm
21:42 -12.2 °C -12.7 °C 34669.3 hPa NE 12.9 km/h 25.9 km/h 94 % 0 mm
21:47 -12.2 °C -12.7 °C 34669.3 hPa ENE 5.1 km/h 25.9 km/h 94 % 0 mm
21:52 -12.3 °C -12.8 °C 34669.3 hPa NNE 7.7 km/h 20.8 km/h 94 % 0 mm
21:57 -12.3 °C -12.8 °C 34669.3 hPa NNE 7.7 km/h 23.3 km/h 94 % 0 mm
22:02 -12.3 °C -12.8 °C 34669.3 hPa NNE 12.9 km/h 23.3 km/h 94 % 0 mm
22:12 -12.4 °C -13 °C 34669.3 hPa NE 5.1 km/h 31.1 km/h 93 % 0 mm
22:22 -12.4 °C -13.1 °C 34669.3 hPa NNE 7.7 km/h 31.1 km/h 93 % 0 mm
22:32 -12.6 °C -13.2 °C 34669.3 hPa NE 7.7 km/h 23.3 km/h 93 % 0 mm
22:37 -12.6 °C -13.2 °C 34669.3 hPa NNE 10.3 km/h 28.5 km/h 93 % 0 mm
22:42 -12.7 °C -13.3 °C 34669.3 hPa NE 20.8 km/h 28.5 km/h 93 % 0 mm
22:47 -12.7 °C -13.4 °C 34669.3 hPa NE 5.1 km/h 23.3 km/h 92 % 0 mm
22:52 -12.8 °C -13.5 °C 34669.3 hPa NNE 10.3 km/h 20.8 km/h 92 % 0 mm
23:02 -12.9 °C -13.7 °C 34669.3 hPa NNE 2.6 km/h 25.9 km/h 91 % 0 mm
23:12 -13.1 °C -13.9 °C 34669.3 hPa NNW 2.6 km/h 25.9 km/h 91 % 0 mm
23:17 -13.1 °C -13.9 °C 34682.8 hPa NNW 2.6 km/h 20.8 km/h 91 % 0 mm
23:22 -13.2 °C -13.9 °C 34682.8 hPa NNW 2.6 km/h 20.8 km/h 91 % 0 mm
23:27 -13.2 °C -14.1 °C 34682.8 hPa NNW 7.7 km/h 23.3 km/h 90 % 0 mm
23:32 -13.2 °C -14.1 °C 34682.8 hPa NNW 10.3 km/h 23.3 km/h 90 % 0 mm
23:37 -13.2 °C -14.2 °C 34682.8 hPa NNE 5.1 km/h 23.3 km/h 89 % 0 mm
23:42 -13.2 °C -14.2 °C 34682.8 hPa NNW 20.8 km/h 23.3 km/h 89 % 0 mm
23:52 -13.3 °C -14.2 °C 34682.8 hPa North 10.3 km/h 25.9 km/h 89 % 0 mm
23:57 -13.4 °C -14.3 °C 34682.8 hPa NNW 18.2 km/h 25.9 km/h 89 % 0 mm
Meteo18
Compliments of Weather Underground - 4 mb

Script developed by  Jim McMurry - jmcmurry@mwt.net Adapted for the template by  Wim van der Kuil - Leuven-Template.eu

You find our weather info also at:

European Weather Network

Weather Underground

Equipment we use:

Weather-station
Davis Vue

Weather-program
Meteobridge

Weather-server
Raspberry PI 2 B+

Provider
1 and 1

Davis Vue

Meteobridge

Raspberry PI 2 B+

1 and 1